Observations for AMENDOLA IT-AFB, Italy (LIBA)

LIBA 162355Z 31011KT 9999 FEW030 18/15 Q1011 RMK FEW VIS MIN 9999 WIND THR11 31008KT WIND THR29 /////KT BLU 
LIBA 162255Z 29010KT CAVOK 21/17 Q1011 RMK SKC VIS MIN 9999 WIND THR11 29010KT WIND THR29 /////KT BLU   
LIBA 162155Z 29007KT CAVOK 21/17 Q1011 RMK SKC VIS MIN 9999 WIND THR11 31008KT WIND THR29 /////KT BLU   
LIBA 162055Z 29007KT CAVOK 21/17 Q1010 RMK SKC VIS MIN 9999 WIND THR11 28006KT WIND THR29 /////KT BLU   
LIBA 161955Z 32012KT 9999 FEW030 22/16 Q1010 RMK FEW VIS MIN 9999 WIND THR11 32009KT WIND THR29 /////KT BLU 
LIBA 161855Z 32013KT 9999 FEW030 22/15 Q1010 RMK FEW VIS MIN 9999 WIND THR11 32009KT WIND THR29 /////KT BLU 
LIBA 161755Z 33010KT 9999 FEW030 24/12 Q1010 RMK FEW VIS MIN 9999 WIND THR11 33009KT WIND THR29 /////KT BLU 
LIBA 161655Z 33013KT 9999 FEW030 26/13 Q1009 RMK FEW VIS MIN 9999 WIND THR11 33011KT WIND THR29 /////KT BLU 
LIBA 161555Z 33009KT 290V360 9999 SCT030 27/09 Q1009 RMK BKN SCT200 VIS MIN 9999 WIND THR11 33008KT WIND THR29 /////KT BLU  
LIBA 161455Z 35011KT 9999 SCT030 26/11 Q1009 RMK BKN SCT070 VIS MIN 9999 WIND THR11 36009KT WIND THR29 /////KT BLU  
LIBA 161355Z 35013KT 9999 FEW025TCU SCT030 26/11 Q1009 RMK BKN VIS MIN 9999 WIND THR11 01011KT WIND THR29 /////KT BLU   
LIBA 161255Z 34010KT 9999 FEW025CB SCT030 BKN060 25/13 Q1008 RMK BKN VIS MIN 9999 WIND THR11 36010KT WIND THR29 /////KT BLU 
LIBA 161155Z 34010KT 300V030 9999 VCTS FEW025CB SCT030 26/12 Q1008 RMK BKN BKN070 VIS MIN 9999 WIND THR11 34007KT WIND THR29 /////KT BLU
LIBA 161055Z 30012KT 9999 FEW025CB SCT030 24/15 Q1008 RMK BKN BKN100 VIS MIN 9999 WIND THR11 30010KT WIND THR29 /////KT BLU 
LIBA 160955Z 30011KT 9999 FEW025CB SCT030 23/16 Q1008 RMK OVC BKN080 VIS MIN 9999 WIND THR11 30010KT WIND THR29 /////KT RED 
LIBA 160855Z 31016KT 9999 FEW025CB SCT030 23/16 Q1008 RMK OVC BKN080 VIS MIN 9999 WIND THR11 31013KT WIND THR29 /////KT BLU 
LIBA 160755Z 30012KT 9999 FEW025CB SCT030 22/18 Q1008 RMK OVC BKN080 VIS MIN 9999 WIND THR11 29011KT WIND THR29 /////KT BLU 
LIBA 160655Z 32010KT 9999 FEW025CB SCT030 22/17 Q1008 RMK OVC BKN080 VIS MIN 9999 WIND THR11 31009KT WIND THR29 /////KT BLU 
LIBA 160555Z 24004KT 9999 FEW030TCU SCT060 19/18 Q1008 RMK BKN BKN090 VIS MIN 9999 WIND THR11 25004KT WIND THR29 /////KT BLU
LIBA 160455Z 23004KT 9999 FEW030 SCT060 18/18 Q1008 RMK BKN BKN100 VIS MIN 9999 WIND THR11 23005KT WIND THR29 /////KT BLU   
LIBA 160355Z 23004KT 9999 SCT060 18/18 Q1008 RMK BKN SCT090 VIS MIN 9999 WIND THR11 23004KT WIND THR29 /////KT BLU  
LIBA 160255Z 18005KT 9999 SCT050 19/19 Q1009 RMK BKN SCT090 VIS MIN 9999 WIND THR11 19007KT WIND THR29 /////KT BLU  
LIBA 160155Z 21006KT 9999 SCT050 19/19 Q1009 RMK BKN BKN080 VIS MIN 9999 WIND THR11 22008KT WIND THR29 /////KT BLU  
LIBA 160055Z 09002KT 9999 FEW030 SCT060 21/19 Q1009 RMK OVC BKN100 VIS MIN 9999 WIND THR11 10003KT WIND THR29 /////KT BLU   
LIBA 152355Z 02006KT 9999 FEW025CB 21/19 Q1009 RMK BKN BKN070 VIS MIN 9999 WIND THR11 36003KT WIND THR29 /////KT BLU